Time;durP1;ratioP1;P1;durP2;ratioP2;P2;SDS_P1;SDS_P2;PMS_P1;PMS_P2;Temp;Humidity;BMP_temperature;BMP_pressure;BME280_temperature;BME280_humidity;BME280_pressure;Samples;Min_cycle;Max_cycle;Signal;HPM_P1;HPM_P2
2023/01/23 00:02:19;;;;;;;35.58;16.92;;;;;;;-0.82;64.57;102144.50;5073775;28;20107;-54
2023/01/23 00:04:45;;;;;;;38.20;17.50;;;;;;;-0.81;64.90;102154.16;5076172;28;20039;-59
2023/01/23 00:07:11;;;;;;;39.92;17.70;;;;;;;-0.77;64.40;102153.28;5075335;28;20113;-57
2023/01/23 00:09:36;;;;;;;35.33;17.83;;;;;;;-0.82;64.43;102151.53;5074897;28;20391;-57
2023/01/23 00:12:03;;;;;;;34.25;16.85;;;;;;;-0.80;64.80;102153.28;5075986;28;20033;-56
2023/01/23 00:14:29;;;;;;;37.33;18.40;;;;;;;-0.80;64.68;102144.53;5075690;28;20036;-58
2023/01/23 00:16:54;;;;;;;34.75;17.08;;;;;;;-0.87;64.91;102141.84;5075762;28;20520;-57
2023/01/23 00:19:20;;;;;;;38.67;18.17;;;;;;;-0.89;64.53;102137.47;5075773;28;20040;-53
2023/01/23 00:21:45;;;;;;;43.53;18.42;;;;;;;-0.75;64.40;102145.41;5075567;28;20099;-56
2023/01/23 00:24:11;;;;;;;34.47;17.17;;;;;;;-0.90;65.02;102140.97;5075971;28;20059;-55
2023/01/23 00:26:37;;;;;;;33.65;17.10;;;;;;;-0.93;64.83;102141.81;5075070;28;20460;-53
2023/01/23 00:29:03;;;;;;;38.00;17.55;;;;;;;-0.88;65.14;102150.59;5074303;28;20055;-52
2023/01/23 00:31:34;;;;;;;34.85;17.67;;;;;;;-1.06;65.82;102109.34;5075461;28;20033;-55
2023/01/23 00:34:04;;;;;;;34.70;17.92;;;;;;;-0.83;65.12;102142.75;5074911;28;20132;-55
2023/01/23 00:36:33;;;;;;;35.10;17.23;;;;;;;-0.75;64.77;102143.66;5075424;28;20072;-56
2023/01/23 00:38:58;;;;;;;39.72;17.90;;;;;;;-0.80;64.93;102155.03;5075201;28;20040;-53
2023/01/23 00:41:24;;;;;;;37.80;17.20;;;;;;;-0.89;64.72;102150.63;5075143;28;20032;-55
2023/01/23 00:43:51;;;;;;;30.05;16.02;;;;;;;-0.92;65.17;102153.25;5074797;28;20047;-54
2023/01/23 00:46:17;;;;;;;34.05;17.45;;;;;;;-0.93;65.29;102156.75;5074915;28;20340;-54
2023/01/23 00:48:43;;;;;;;36.22;17.67;;;;;;;-0.83;64.68;102163.78;5075203;28;20390;-53
2023/01/23 00:51:08;;;;;;;38.40;18.35;;;;;;;-0.96;64.83;102156.72;5075472;28;20034;-52
2023/01/23 00:53:34;;;;;;;34.70;17.80;;;;;;;-0.95;64.88;102175.13;5075237;28;20047;-55
2023/01/23 00:55:59;;;;;;;36.50;18.23;;;;;;;-1.07;64.73;102162.78;5074450;28;20111;-54
2023/01/23 00:58:25;;;;;;;35.33;18.92;;;;;;;-0.99;64.79;102167.19;5075219;28;20362;-57
2023/01/23 01:00:50;;;;;;;37.50;17.65;;;;;;;-1.17;65.90;102167.13;5075378;28;20101;-54
2023/01/23 01:03:16;;;;;;;36.22;16.85;;;;;;;-1.19;66.24;102165.38;5074883;28;20462;-66
2023/01/23 01:05:41;;;;;;;35.15;17.23;;;;;;;-1.11;65.42;102165.38;5075062;28;20366;-54
2023/01/23 01:08:07;;;;;;;23.95;12.40;;;;;;;-1.03;65.02;102176.84;5075113;28;20443;-56
2023/01/23 01:10:33;;;;;;;29.00;14.13;;;;;;;-0.96;64.47;102173.38;5074920;28;20044;-55
2023/01/23 01:13:00;;;;;;;31.98;15.93;;;;;;;-1.17;65.41;102172.38;5074167;28;20029;-53
2023/01/23 01:15:27;;;;;;;31.23;16.65;;;;;;;-1.21;65.17;102172.34;5074231;28;20040;-57
2023/01/23 01:17:53;;;;;;;28.65;15.57;;;;;;;-1.17;64.96;102184.66;5075106;28;20032;-54
2023/01/23 01:20:20;;;;;;;31.98;16.10;;;;;;;-1.25;65.68;102181.06;5074932;28;20025;-53
2023/01/23 01:22:45;;;;;;;31.20;15.55;;;;;;;-1.39;65.48;102170.47;5074422;28;20072;-57
2023/01/23 01:25:11;;;;;;;33.03;16.70;;;;;;;-1.42;66.10;102181.84;5073705;28;20060;-53
2023/01/23 01:27:36;;;;;;;27.50;14.60;;;;;;;-1.37;65.51;102180.13;5074823;28;20028;-55
2023/01/23 01:30:02;;;;;;;28.63;14.50;;;;;;;-1.33;65.90;102174.03;5073845;28;20033;-54
2023/01/23 01:32:29;;;;;;;26.17;14.02;;;;;;;-1.26;65.35;102177.59;5073952;28;20161;-55
2023/01/23 01:34:55;;;;;;;26.00;13.32;;;;;;;-1.33;64.93;102157.38;5074242;28;20127;-53
2023/01/23 01:37:22;;;;;;;25.23;13.15;;;;;;;-1.20;64.90;102185.50;5074925;28;20459;-56
2023/01/23 01:39:48;;;;;;;23.50;12.75;;;;;;;-1.15;64.79;102185.53;5074708;28;20483;-62
2023/01/23 01:42:13;;;;;;;31.05;13.98;;;;;;;-1.14;64.83;102194.28;5073209;28;20040;-55
2023/01/23 01:45:01;;;;;;;26.92;13.80;;;;;;;-1.07;65.08;102175.94;5073330;28;20121;-55
2023/01/23 01:47:27;;;;;;;29.20;14.68;;;;;;;-1.12;64.14;102185.56;5073814;28;20161;-59
2023/01/23 01:49:56;;;;;;;28.55;13.70;;;;;;;-1.31;65.17;102174.06;5074157;28;20408;-57
2023/01/23 01:52:22;;;;;;;28.13;14.82;;;;;;;-1.31;65.80;102182.78;5073865;28;20048;-56
2023/01/23 01:55:01;;;;;;;34.55;16.52;;;;;;;-1.25;66.08;102181.97;5074181;28;20435;-56
2023/01/23 01:57:40;;;;;;;37.05;16.95;;;;;;;-1.21;65.68;102169.69;5074146;28;20325;-56
2023/01/23 02:00:09;;;;;;;34.45;16.05;;;;;;;-1.19;65.70;102186.41;5073661;28;20039;-55
2023/01/23 02:02:42;;;;;;;37.67;17.20;;;;;;;-1.18;65.85;102185.53;5073792;28;20035;-57
2023/01/23 02:05:15;;;;;;;33.92;15.95;;;;;;;-1.27;66.30;102185.44;5074302;28;20130;-58
2023/01/23 02:07:45;;;;;;;29.55;14.38;;;;;;;-1.32;66.57;102181.03;5073835;28;20078;-51
2023/01/23 02:10:13;;;;;;;32.05;14.25;;;;;;;-1.30;66.29;102184.56;5073998;28;20082;-52
2023/01/23 02:12:39;;;;;;;28.88;14.18;;;;;;;-1.27;66.02;102183.72;5073564;28;20415;-53
2023/01/23 02:15:06;;;;;;;26.17;14.10;;;;;;;-1.26;65.78;102187.19;5073319;28;20415;-55
2023/01/23 02:17:35;;;;;;;28.23;12.70;;;;;;;-1.46;65.91;102145.88;5073429;28;20086;-57
2023/01/23 02:20:21;;;;;;;27.27;13.60;;;;;;;-1.17;66.59;102176.75;5073567;28;20458;-59
2023/01/23 02:23:14;;;;;;;32.40;14.27;;;;;;;-1.12;65.72;102180.28;5073696;28;20107;-56
2023/01/23 02:25:43;;;;;;;25.77;13.38;;;;;;;-1.13;65.36;102172.38;5073277;28;20112;-52
2023/01/23 02:28:11;;;;;;;26.55;13.00;;;;;;;-1.22;65.28;102166.22;5073017;28;20041;-56
2023/01/23 02:30:38;;;;;;;28.85;15.05;;;;;;;-1.19;65.39;102173.25;5073192;28;20120;-55
2023/01/23 02:33:09;;;;;;;22.90;12.60;;;;;;;-1.18;65.70;102169.75;5073233;28;20060;-51
2023/01/23 02:35:36;;;;;;;24.60;12.98;;;;;;;-1.22;65.54;102171.47;5073025;28;20045;-56
2023/01/23 02:38:04;;;;;;;22.50;12.82;;;;;;;-1.16;64.47;102171.50;5073127;28;20071;-59
2023/01/23 02:40:36;;;;;;;24.80;12.88;;;;;;;-1.20;64.59;102174.13;5073442;28;20067;-56
2023/01/23 02:43:07;;;;;;;19.58;10.75;;;;;;;-1.31;65.18;102172.28;5072714;28;20037;-57
2023/01/23 02:45:33;;;;;;;19.52;10.88;;;;;;;-1.50;65.33;102149.38;5073162;28;20029;-57
2023/01/23 02:48:00;;;;;;;15.98;9.30;;;;;;;-1.35;64.77;102169.63;5073262;28;20057;-55
2023/01/23 02:50:27;;;;;;;19.00;9.73;;;;;;;-1.30;65.02;102170.56;5072844;28;20024;-55
2023/01/23 02:52:53;;;;;;;16.95;9.60;;;;;;;-1.33;64.63;102157.38;5072571;28;20105;-63
2023/01/23 02:55:22;;;;;;;20.65;10.48;;;;;;;-1.13;64.07;102168.03;5073725;28;20047;-56
2023/01/23 02:57:48;;;;;;;16.05;9.02;;;;;;;-1.14;63.79;102175.88;5072956;28;20540;-56
2023/01/23 03:00:18;;;;;;;15.07;8.43;;;;;;;-1.30;64.77;102181.06;5072595;28;20064;-52
2023/01/23 03:02:48;;;;;;;17.73;8.55;;;;;;;-1.27;64.20;102175.81;5072991;28;20032;-53
2023/01/23 03:05:15;;;;;;;15.15;8.48;;;;;;;-1.35;63.72;102178.41;5071600;28;20363;-54
2023/01/23 03:07:41;;;;;;;14.20;9.02;;;;;;;-1.53;65.11;102184.41;5072388;28;20024;-58
2023/01/23 03:10:09;;;;;;;15.73;9.80;;;;;;;-1.44;64.54;102180.97;5072477;28;20024;-55
2023/01/23 03:12:36;;;;;;;13.82;8.70;;;;;;;-1.35;63.54;102186.28;5072928;28;20040;-54
2023/01/23 03:15:04;;;;;;;18.48;9.77;;;;;;;-1.57;64.40;102179.09;5072777;28;20055;-58
2023/01/23 03:17:31;;;;;;;17.70;9.73;;;;;;;-1.69;64.91;102177.25;5072486;28;20035;-56
2023/01/23 03:19:57;;;;;;;18.95;10.80;;;;;;;-1.67;65.83;102184.28;5072341;28;20029;-55
2023/01/23 03:22:22;;;;;;;21.38;11.25;;;;;;;-1.59;65.78;102192.22;5072879;28;20446;-55
2023/01/23 03:24:48;;;;;;;21.15;11.77;;;;;;;-1.52;65.05;102186.16;5072707;28;20036;-58
2023/01/23 03:27:14;;;;;;;23.13;11.68;;;;;;;-1.48;65.06;102189.66;5071713;28;20032;-57
2023/01/23 03:32:24;;;;;;;26.52;13.35;;;;;;;-1.47;65.85;102180.91;5072679;28;20399;-60
2023/01/23 03:34:50;;;;;;;27.48;14.02;;;;;;;-1.48;65.51;102176.53;5072603;28;20056;-55
2023/01/23 03:37:18;;;;;;;28.52;13.45;;;;;;;-1.35;65.16;102181.03;5071143;28;20417;-57
2023/01/23 03:42:31;;;;;;;32.75;15.63;;;;;;;-1.42;65.61;102175.72;5072685;28;20098;-54
2023/01/23 03:44:57;;;;;;;26.60;14.43;;;;;;;-1.62;65.74;102139.66;5072330;28;20029;-59
2023/01/23 03:47:22;;;;;;;30.70;15.02;;;;;;;-1.41;65.64;102180.09;5072422;28;20116;-57
2023/01/23 03:49:48;;;;;;;29.65;14.93;;;;;;;-1.45;66.00;102185.31;5071663;28;20028;-56
2023/01/23 03:52:13;;;;;;;27.00;14.75;;;;;;;-1.40;65.97;102188.00;5072582;28;20032;-55
2023/01/23 03:54:39;;;;;;;25.15;14.00;;;;;;;-1.33;65.54;102189.78;5072338;28;20036;-54
2023/01/23 03:57:04;;;;;;;27.35;13.90;;;;;;;-1.32;65.83;102181.03;5071806;28;20068;-56
2023/01/23 03:59:29;;;;;;;23.35;12.20;;;;;;;-1.28;65.30;102181.94;5071980;28;20044;-52
2023/01/23 04:01:56;;;;;;;23.52;12.45;;;;;;;-1.24;65.48;102188.97;5072870;28;20096;-52
2023/01/23 04:04:22;;;;;;;20.90;10.90;;;;;;;-1.15;64.65;102198.69;5072089;28;20093;-55
2023/01/23 04:06:47;;;;;;;22.27;11.68;;;;;;;-1.16;64.51;102195.16;5071748;28;20453;-57
2023/01/23 04:09:13;;;;;;;21.90;11.85;;;;;;;-1.17;64.51;102185.50;5071780;28;20036;-54
2023/01/23 04:11:38;;;;;;;19.70;11.30;;;;;;;-1.10;64.33;102191.69;5071503;28;20032;-56
2023/01/23 04:14:04;;;;;;;24.92;11.38;;;;;;;-1.13;64.39;102190.78;5071720;28;20035;-54
2023/01/23 04:16:29;;;;;;;21.45;11.98;;;;;;;-1.19;64.93;102184.63;5053984;28;20037;-53
2023/01/23 04:18:54;;;;;;;21.23;10.75;;;;;;;-1.15;64.56;102198.69;5071947;28;20060;-51
2023/01/23 04:21:20;;;;;;;23.75;11.57;;;;;;;-1.20;64.07;102189.91;5060812;28;20033;-52
2023/01/23 04:23:46;;;;;;;23.77;10.75;;;;;;;-1.19;64.28;102197.78;5051669;28;20033;-53
2023/01/23 04:26:12;;;;;;;19.75;10.82;;;;;;;-1.25;64.03;102191.59;5051583;28;20033;-53
2023/01/23 04:28:37;;;;;;;20.83;10.38;;;;;;;-1.24;64.01;102194.25;5051708;28;20032;-56
2023/01/23 04:31:03;;;;;;;19.20;10.82;;;;;;;-1.22;64.13;102192.50;5050659;28;20025;-58
2023/01/23 04:33:29;;;;;;;19.60;10.35;;;;;;;-1.26;63.46;102180.22;5053435;28;20072;-59
2023/01/23 04:35:58;;;;;;;18.38;9.85;;;;;;;-1.18;63.23;102193.41;5071722;28;20048;-59
2023/01/23 04:38:26;;;;;;;16.90;9.65;;;;;;;-1.18;63.74;102201.28;5071971;28;20046;-60
2023/01/23 04:40:52;;;;;;;20.77;10.77;;;;;;;-1.11;62.90;102189.94;5070811;28;20032;-57
2023/01/23 04:43:17;;;;;;;22.63;12.32;;;;;;;-1.15;63.26;102201.31;5071524;28;20037;-59
2023/01/23 04:45:43;;;;;;;27.05;13.75;;;;;;;-1.21;63.25;102209.13;5070790;28;20367;-56
2023/01/23 04:48:09;;;;;;;30.65;15.13;;;;;;;-1.13;62.85;102206.56;5072608;28;20107;-56
2023/01/23 04:50:35;;;;;;;29.17;15.23;;;;;;;-1.21;63.03;102214.38;5075773;28;20032;-57
2023/01/23 04:53:01;;;;;;;26.52;13.43;;;;;;;-1.28;62.98;102212.59;5075432;28;20021;-58
2023/01/23 04:55:27;;;;;;;25.23;13.88;;;;;;;-1.30;62.89;102215.22;5074967;28;20036;-57
2023/01/23 04:57:53;;;;;;;28.75;14.32;;;;;;;-1.64;63.29;102180.78;5074619;28;20484;-59
2023/01/23 05:00:20;;;;;;;28.50;14.65;;;;;;;-1.51;63.45;102210.66;5075553;28;20036;-59
2023/01/23 05:02:46;;;;;;;26.75;13.90;;;;;;;-1.43;63.51;102221.25;5074993;28;20422;-58
2023/01/23 05:05:11;;;;;;;28.27;14.23;;;;;;;-1.44;63.43;102220.38;5074997;28;20332;-58
2023/01/23 05:07:37;;;;;;;28.20;14.40;;;;;;;-1.33;63.39;102223.06;5075705;28;20086;-58
2023/01/23 05:10:03;;;;;;;23.50;11.90;;;;;;;-1.35;63.04;102222.19;5075122;28;20044;-58
2023/01/23 05:12:29;;;;;;;25.75;13.18;;;;;;;-1.47;63.55;102217.72;5075197;28;20090;-55
2023/01/23 05:14:54;;;;;;;25.10;13.73;;;;;;;-1.56;64.37;102228.16;5074789;28;20028;-55
2023/01/23 05:17:19;;;;;;;24.73;13.10;;;;;;;-1.59;64.24;102234.25;5073764;28;20036;-56
2023/01/23 05:19:45;;;;;;;30.85;13.77;;;;;;;-1.62;64.85;102227.22;5075129;28;20040;-59
2023/01/23 05:22:10;;;;;;;30.08;15.05;;;;;;;-1.60;64.63;102237.75;5074541;28;20025;-53
2023/01/23 05:24:36;;;;;;;24.92;12.52;;;;;;;-1.47;63.98;102243.97;5073403;28;20039;-55
2023/01/23 05:27:01;;;;;;;28.70;13.07;;;;;;;-1.49;64.11;102246.63;5057383;28;20056;-66
2023/01/23 05:29:27;;;;;;;30.95;14.10;;;;;;;-1.52;63.86;102248.31;5055444;28;20424;-56
2023/01/23 05:31:52;;;;;;;24.40;12.40;;;;;;;-1.62;64.68;102240.38;5054331;28;20416;-54
2023/01/23 05:34:18;;;;;;;26.15;13.20;;;;;;;-1.51;64.42;102247.44;5054066;28;20049;-67
2023/01/23 05:36:43;;;;;;;24.95;12.98;;;;;;;-1.46;64.12;102251.00;5054578;28;20036;-62
2023/01/23 05:39:08;;;;;;;27.25;13.07;;;;;;;-1.60;64.56;102254.41;5061995;28;20040;-56
2023/01/23 05:41:34;;;;;;;25.05;13.23;;;;;;;-1.61;64.88;102263.16;5073883;28;20040;-69
2023/01/23 05:43:59;;;;;;;27.27;13.65;;;;;;;-1.63;65.25;102257.00;5074406;28;20033;-55
2023/01/23 05:46:25;;;;;;;25.48;12.82;;;;;;;-1.49;64.72;102253.59;5074413;28;20054;-55
2023/01/23 05:48:51;;;;;;;24.02;11.95;;;;;;;-1.49;64.49;102266.75;5074437;28;20333;-54
2023/01/23 05:51:17;;;;;;;27.52;12.95;;;;;;;-1.56;64.71;102249.16;5073895;28;20025;-53
2023/01/23 05:53:43;;;;;;;25.05;12.32;;;;;;;-1.46;64.66;102261.50;5073509;28;20111;-54
2023/01/23 05:56:08;;;;;;;23.73;11.75;;;;;;;-1.38;63.37;102259.84;5074217;28;20435;-55
2023/01/23 05:58:34;;;;;;;20.58;11.50;;;;;;;-1.48;63.76;102263.25;5074571;28;20040;-52
2023/01/23 06:01:02;;;;;;;21.42;11.43;;;;;;;-1.46;63.42;102272.91;5073355;28;20040;-55
2023/01/23 06:03:28;;;;;;;21.92;11.63;;;;;;;-1.48;63.80;102266.78;5073863;28;20036;-60
2023/01/23 06:05:53;;;;;;;24.42;11.38;;;;;;;-1.50;63.76;102257.09;5073791;28;20055;-57
2023/01/23 06:08:19;;;;;;;22.55;12.25;;;;;;;-1.41;63.30;102274.69;5073426;28;20024;-49
2023/01/23 06:10:44;;;;;;;20.58;11.15;;;;;;;-1.50;63.35;102278.13;5073640;28;20109;-52
2023/01/23 06:13:10;;;;;;;22.40;11.68;;;;;;;-1.46;63.19;102277.28;5073460;28;20020;-51
2023/01/23 06:15:35;;;;;;;20.02;10.68;;;;;;;-1.39;62.50;102279.13;5073751;28;20439;-55
2023/01/23 06:18:01;;;;;;;18.50;10.43;;;;;;;-1.39;63.00;102272.97;5073554;28;20031;-52
2023/01/23 06:20:26;;;;;;;21.33;10.88;;;;;;;-1.63;63.58;102283.28;5073439;28;20028;-51
2023/01/23 06:22:52;;;;;;;22.20;12.32;;;;;;;-1.74;64.09;102279.63;5073495;28;20028;-50
2023/01/23 06:25:19;;;;;;;21.10;11.68;;;;;;;-1.75;64.72;102275.25;5073098;28;20561;-54
2023/01/23 06:27:45;;;;;;;20.80;11.25;;;;;;;-1.59;63.99;102282.44;5073496;28;20108;-53
2023/01/23 06:30:11;;;;;;;25.30;12.85;;;;;;;-1.60;63.51;102275.41;5072278;28;20060;-52
2023/01/23 06:32:37;;;;;;;21.77;12.55;;;;;;;-1.65;63.99;102287.63;5072666;28;20032;-52
2023/01/23 06:35:03;;;;;;;22.98;12.55;;;;;;;-1.61;63.71;102297.28;5073203;28;20344;-54
2023/01/23 06:37:29;;;;;;;20.63;12.10;;;;;;;-1.51;62.94;102284.25;5073766;28;20447;-56
2023/01/23 06:39:54;;;;;;;22.35;12.05;;;;;;;-1.54;62.99;102295.63;5070925;28;20059;-59
2023/01/23 06:42:20;;;;;;;20.50;10.80;;;;;;;-1.53;62.45;102291.22;5072746;28;20104;-54
2023/01/23 06:44:46;;;;;;;24.70;12.15;;;;;;;-1.55;63.33;102291.22;5072959;28;20125;-52
2023/01/23 06:47:11;;;;;;;19.85;11.27;;;;;;;-1.66;63.57;102288.50;5073304;28;20033;-50
2023/01/23 06:49:36;;;;;;;24.90;12.43;;;;;;;-1.63;64.19;102295.50;5072698;28;20042;-54
2023/01/23 06:52:02;;;;;;;24.00;12.35;;;;;;;-1.57;64.14;102294.69;5072919;28;20025;-50
2023/01/23 06:54:28;;;;;;;24.90;12.68;;;;;;;-1.49;63.51;102293.91;5072716;28;20173;-52
2023/01/23 06:56:53;;;;;;;21.40;12.00;;;;;;;-1.48;63.97;102295.66;5072548;28;20107;-50
2023/01/23 06:59:19;;;;;;;17.17;8.63;;;;;;;-1.33;63.01;102288.78;5071217;28;20056;-55
2023/01/23 07:01:44;;;;;;;24.52;12.02;;;;;;;-1.44;62.80;102291.34;5072526;28;20063;-53
2023/01/23 07:04:10;;;;;;;25.30;11.20;;;;;;;-1.49;62.83;102298.28;5072616;28;20036;-51
2023/01/23 07:06:36;;;;;;;24.17;11.77;;;;;;;-1.65;63.76;102285.00;5071214;28;20033;-63
2023/01/23 07:09:01;;;;;;;24.45;13.02;;;;;;;-1.52;63.86;102307.03;5072627;28;20523;-52
2023/01/23 07:11:27;;;;;;;27.23;13.27;;;;;;;-1.52;63.20;102277.22;5072117;28;20039;-55
2023/01/23 07:13:53;;;;;;;24.50;13.25;;;;;;;-1.43;63.61;102287.84;5072923;28;20123;-51
2023/01/23 07:16:19;;;;;;;24.77;12.73;;;;;;;-1.42;63.92;102300.13;5054937;28;20040;-57
2023/01/23 07:18:45;;;;;;;21.75;12.15;;;;;;;-1.36;63.78;102289.66;5072437;28;20462;-55
2023/01/23 07:21:10;;;;;;;25.42;13.45;;;;;;;-1.32;62.71;102280.91;5072513;28;20040;-56
2023/01/23 07:23:35;;;;;;;24.95;12.05;;;;;;;-1.30;62.95;102288.81;5065217;28;20043;-55
2023/01/23 07:26:06;;;;;;;23.48;12.57;;;;;;;-1.33;63.10;102294.94;5067455;28;20075;-56
2023/01/23 07:28:31;;;;;;;27.02;13.70;;;;;;;-1.31;63.08;102306.31;5059677;28;20020;-52
2023/01/23 07:30:58;;;;;;;30.08;13.40;;;;;;;-1.49;62.99;102258.84;5070092;28;20378;-54
2023/01/23 07:33:24;;;;;;;21.95;11.15;;;;;;;-1.30;62.32;102299.34;5070054;28;20075;-53
2023/01/23 07:35:50;;;;;;;26.73;12.23;;;;;;;-1.26;62.26;102294.97;5071717;28;20450;-56
2023/01/23 07:38:15;;;;;;;19.88;10.43;;;;;;;-1.27;62.03;102301.09;5070965;28;20032;-55
2023/01/23 07:40:42;;;;;;;23.05;10.73;;;;;;;-1.24;62.71;102295.84;5071063;28;20115;-53
2023/01/23 07:43:08;;;;;;;21.88;11.27;;;;;;;-1.21;62.85;102301.13;5071638;28;20040;-56
2023/01/23 07:45:34;;;;;;;21.88;11.02;;;;;;;-1.16;62.41;102302.94;5071807;28;20020;-52
2023/01/23 07:48:00;;;;;;;22.80;11.38;;;;;;;-1.23;62.78;102300.25;5070943;28;20446;-54
2023/01/23 07:50:25;;;;;;;25.30;11.10;;;;;;;-1.40;63.40;102277.34;5071358;28;20043;-56
2023/01/23 07:52:51;;;;;;;24.75;11.00;;;;;;;-1.27;62.96;102293.22;5067878;28;20029;-52
2023/01/23 07:55:17;;;;;;;22.98;11.10;;;;;;;-1.34;62.51;102298.41;5062152;28;20028;-58
2023/01/23 07:57:42;;;;;;;19.80;10.95;;;;;;;-1.32;62.45;102296.69;5061444;28;20060;-55
2023/01/23 08:00:09;;;;;;;25.30;11.38;;;;;;;-1.28;62.25;102301.97;5069318;28;20191;-55
2023/01/23 08:02:36;;;;;;;19.65;10.65;;;;;;;-1.31;62.67;102303.69;5070284;28;20039;-54
2023/01/23 08:05:02;;;;;;;24.20;11.23;;;;;;;-1.31;62.20;102294.94;5071244;28;20634;-55
2023/01/23 08:07:28;;;;;;;23.77;11.32;;;;;;;-1.25;62.36;102299.34;5069671;28;20039;-53
2023/01/23 08:09:54;;;;;;;26.50;13.57;;;;;;;-1.32;62.13;102304.56;5071004;28;20443;-53
2023/01/23 08:12:19;;;;;;;23.33;11.80;;;;;;;-1.31;62.56;102314.22;5071629;28;20021;-51
2023/01/23 08:14:46;;;;;;;23.23;12.48;;;;;;;-1.31;62.59;102298.44;5070866;28;20115;-53
2023/01/23 08:17:12;;;;;;;22.48;12.30;;;;;;;-1.22;62.52;102312.53;5071396;28;20127;-56
2023/01/23 08:19:37;;;;;;;29.38;12.18;;;;;;;-1.16;62.33;102309.97;5071011;28;20487;-64
2023/01/23 08:22:03;;;;;;;24.58;13.60;;;;;;;-1.19;62.53;102302.06;5070868;28;20029;-54
2023/01/23 08:24:28;;;;;;;28.33;14.10;;;;;;;-1.21;62.19;102307.28;5074368;28;20028;-53
2023/01/23 08:26:53;;;;;;;27.02;13.93;;;;;;;-1.19;61.85;102312.56;5075595;28;20044;-52
2023/01/23 08:29:19;;;;;;;32.65;14.30;;;;;;;-1.22;62.05;102296.75;5075385;28;20032;-53
2023/01/23 08:31:44;;;;;;;29.30;14.90;;;;;;;-1.22;62.17;102317.78;5076039;28;20528;-56
2023/01/23 08:34:10;;;;;;;27.02;13.80;;;;;;;-1.27;62.54;102303.72;5075441;28;20041;-56
2023/01/23 08:36:36;;;;;;;25.75;12.85;;;;;;;-1.24;62.29;102327.41;5075819;28;20043;-54
2023/01/23 08:39:01;;;;;;;19.70;11.68;;;;;;;-1.30;62.07;102310.72;5074869;28;20052;-54
2023/01/23 08:41:27;;;;;;;26.75;11.65;;;;;;;-1.20;61.67;102316.06;5075783;28;20542;-53
2023/01/23 08:43:52;;;;;;;22.95;11.27;;;;;;;-1.37;62.70;102326.41;5075323;28;20086;-53
2023/01/23 08:46:18;;;;;;;24.20;11.27;;;;;;;-1.39;62.56;102326.41;5074207;28;20066;-55
2023/01/23 08:48:44;;;;;;;22.30;11.70;;;;;;;-1.42;62.68;102331.66;5075550;28;20032;-54
2023/01/23 08:51:12;;;;;;;21.77;11.10;;;;;;;-1.26;62.23;102322.16;5075930;28;20048;-52
2023/01/23 08:53:38;;;;;;;21.85;11.13;;;;;;;-1.35;62.05;102319.41;5074914;28;20028;-51
2023/01/23 08:56:07;;;;;;;24.33;11.52;;;;;;;-1.56;62.76;102293.84;5075307;28;20115;-52
2023/01/23 08:58:33;;;;;;;27.30;10.88;;;;;;;-1.39;62.85;102329.03;5074363;28;20020;-54
2023/01/23 09:00:59;;;;;;;21.00;10.30;;;;;;;-1.50;62.14;102300.03;5075330;28;20032;-57
2023/01/23 09:03:24;;;;;;;18.20;9.65;;;;;;;-1.23;61.20;102316.91;5074792;28;20024;-56
2023/01/23 09:05:50;;;;;;;17.90;9.98;;;;;;;-1.38;61.85;102320.28;5075342;28;20394;-57
2023/01/23 09:08:15;;;;;;;23.23;10.70;;;;;;;-1.39;62.04;102318.53;5074878;28;20028;-55
2023/01/23 09:10:41;;;;;;;20.52;10.45;;;;;;;-1.30;61.63;102310.72;5075659;28;20040;-57
2023/01/23 09:13:07;;;;;;;20.92;10.88;;;;;;;-1.34;61.70;102306.31;5075383;28;20036;-55
2023/01/23 09:15:32;;;;;;;18.67;9.77;;;;;;;-1.31;61.19;102324.72;5074941;28;20127;-53
2023/01/23 09:17:58;;;;;;;22.08;11.57;;;;;;;-1.32;61.59;102308.97;5075244;28;20455;-60
2023/01/23 09:20:25;;;;;;;19.92;10.80;;;;;;;-1.34;62.08;102326.44;5074751;28;20163;-51
2023/01/23 09:22:51;;;;;;;24.10;11.40;;;;;;;-1.38;61.43;102304.53;5074822;28;20039;-56
2023/01/23 09:25:17;;;;;;;21.90;11.45;;;;;;;-1.40;61.70;102301.00;5074130;28;20028;-52
2023/01/23 09:27:42;;;;;;;19.30;10.52;;;;;;;-1.40;62.16;102303.63;5074106;28;20463;-53
2023/01/23 09:30:09;;;;;;;22.05;11.27;;;;;;;-1.35;62.02;102298.41;5074512;28;20133;-53
2023/01/23 09:32:34;;;;;;;22.30;10.93;;;;;;;-1.31;61.88;102302.84;5073615;28;20044;-56
2023/01/23 09:35:00;;;;;;;17.70;10.85;;;;;;;-1.24;62.05;102301.13;5072540;28;20830;-51
2023/01/23 09:37:29;;;;;;;20.48;10.52;;;;;;;-1.23;61.30;102287.09;5066486;28;20103;-54
2023/01/23 09:39:54;;;;;;;19.30;10.80;;;;;;;-1.28;61.31;102297.59;5054097;28;20495;-53
2023/01/23 09:42:24;;;;;;;20.55;10.63;;;;;;;-1.25;61.77;102294.09;5054001;28;20155;-53
2023/01/23 09:44:55;;;;;;;18.88;10.82;;;;;;;-1.16;60.93;102296.81;5053971;28;20021;-53
2023/01/23 09:47:35;;;;;;;21.65;11.70;;;;;;;-1.34;62.00;102272.13;5054333;28;20048;-52
2023/01/23 09:50:06;;;;;;;25.42;12.30;;;;;;;-1.20;61.55;102292.41;5072527;28;20127;-55
2023/01/23 09:52:43;;;;;;;19.52;10.85;;;;;;;-1.19;61.91;102288.91;5070416;28;20420;-56
2023/01/23 09:55:12;;;;;;;20.30;10.50;;;;;;;-1.18;61.15;102298.56;5072301;28;20042;-56
2023/01/23 09:57:45;;;;;;;25.02;12.00;;;;;;;-1.12;60.99;102282.81;5068192;28;20044;-56
2023/01/23 10:00:28;;;;;;;23.80;11.20;;;;;;;-1.08;61.28;102289.00;5055447;28;20153;-63
2023/01/23 10:02:55;;;;;;;20.35;11.45;;;;;;;-1.08;60.72;102286.38;5073622;28;20024;-63
2023/01/23 10:05:34;;;;;;;24.90;11.52;;;;;;;-1.02;60.93;102295.16;5073437;28;20036;-56
2023/01/23 10:08:37;;;;;;;24.20;12.60;;;;;;;-0.99;60.74;102296.94;5073559;28;20499;-55
2023/01/23 10:11:22;;;;;;;23.85;12.15;;;;;;;-1.24;61.15;102261.69;5042024;28;20053;-51
2023/01/23 10:14:06;;;;;;;24.75;13.73;;;;;;;-1.08;61.06;102297.75;5053187;28;20063;-51
2023/01/23 10:16:51;;;;;;;26.58;13.75;;;;;;;-1.12;60.99;102300.34;5068715;28;20450;-54
2023/01/23 10:19:38;;;;;;;28.00;13.30;;;;;;;-1.24;60.41;102238.03;5072541;28;20044;-55
2023/01/23 10:22:19;;;;;;;28.00;14.13;;;;;;;-1.12;60.68;102293.34;5073516;28;20028;-57
2023/01/23 10:24:50;;;;;;;26.08;13.70;;;;;;;-1.14;60.65;102294.19;5065121;28;20033;-56
2023/01/23 10:27:30;;;;;;;27.85;14.80;;;;;;;-1.08;60.69;102295.13;5053282;28;20048;-59
2023/01/23 10:29:56;;;;;;;28.98;14.70;;;;;;;-1.03;60.56;102290.78;5054325;28;20076;-57
2023/01/23 10:32:26;;;;;;;29.85;14.35;;;;;;;-0.96;60.11;102288.22;5053046;28;20136;-58
2023/01/23 10:35:12;;;;;;;29.85;14.35;;;;;;;-0.81;59.38;102292.69;5053129;28;20471;-58
2023/01/23 10:37:55;;;;;;;27.25;14.40;;;;;;;-0.81;60.19;102292.69;5053756;28;20119;-58
2023/01/23 10:43:18;;;;;;;33.05;15.60;;;;;;;-0.75;59.76;102283.06;5071828;28;20126;-55
2023/01/23 10:45:46;;;;;;;30.50;14.77;;;;;;;-0.70;59.21;102290.13;5073265;28;20115;-56
2023/01/23 10:48:47;;;;;;;31.13;14.98;;;;;;;-0.52;59.10;102289.34;5073028;28;20174;-54
2023/01/23 10:51:25;;;;;;;31.45;15.25;;;;;;;-0.41;58.73;102278.88;5073078;28;20366;-53
2023/01/23 10:54:07;;;;;;;28.33;15.20;;;;;;;-0.35;58.73;102278.91;5073285;28;20040;-59
2023/01/23 10:56:36;;;;;;;33.85;15.73;;;;;;;-0.34;58.28;102273.66;5052714;28;20545;-58
2023/01/23 10:59:04;;;;;;;31.73;15.90;;;;;;;-0.34;58.21;102280.66;5052703;28;20098;-61
2023/01/23 11:01:34;;;;;;;35.45;17.67;;;;;;;-0.28;57.73;102272.78;5052796;28;20021;-60
2023/01/23 11:04:18;;;;;;;36.95;18.50;;;;;;;-0.23;57.52;102265.81;5070848;28;20397;-57
2023/01/23 11:06:44;;;;;;;29.08;16.00;;;;;;;-0.22;57.29;102267.56;5072772;28;20028;-56
2023/01/23 11:09:19;;;;;;;33.50;17.27;;;;;;;-0.21;57.05;102264.06;5072466;28;20025;-57
2023/01/23 11:11:58;;;;;;;33.35;16.40;;;;;;;-0.18;57.18;102269.31;5052813;28;20037;-62
2023/01/23 11:14:23;;;;;;;32.78;17.42;;;;;;;-0.26;57.10;102267.53;5052307;28;20087;-57
2023/01/23 11:17:12;;;;;;;33.97;17.05;;;;;;;-0.15;57.26;102261.44;5054503;28;20028;-56
2023/01/23 11:19:37;;;;;;;32.60;17.17;;;;;;;-0.24;57.19;102269.31;5071156;28;20101;-55
2023/01/23 11:22:04;;;;;;;37.42;17.98;;;;;;;-0.27;57.25;102263.16;5072173;28;20423;-58